Airfield :
LOGIN :

Register | Disclaimer

   EN    FR    IT 

 










Legend :    VFR   Marginal VFR   IFR   Intensive IFR   Very Intensive IFR
Visi :
Ceiling :
>= 8 km
>= 3000ft
5 to 8 km
1000 to 3000 ft
1500m to 5 km
500 to 1000 ft
800 to 1500m
200 to 500 ft
< 800m
< 200 ft
Symbols :   Thunderstorms  Fog  Heavy snow  Heavy precipitations  Wind > 20 kt
SIGMETs :     Misc.  Thunderstorms  Icing  Turbulence  Mountain Waves  Volcanic Ashes






- Airport Elevation : 574 ft
- IATA code : TEQ


LTBU - Corlu

CURRENT METAR :
  • 300650Z 26006KT 230V290 8000 FEW009 SCT080 11/08 Q1011 RMK RWY22 25007KT

EXPIRED METARs :
  • 300620Z 25004KT 210V280 8000 NSC 10/09 Q1011 RMK RWY22 25006KT
  • 300550Z 25005KT 8000 NSC 09/08 Q1011 RMK RWY22 25003KT
  • 300520Z 00000KT 7000 NSC 08/07 Q1011 RMK RWY22 VRB02KT
  • 300450Z 00000KT 6000 NSC 06/05 Q1010 RMK RWY22 25002KT
  • 300420Z 00000KT 6000 NSC 05/05 Q1010 RMK RWY22 26004KT

TAF TAF LTBU
Valid from the 30 at 06:00 until the 31 at 06:00 UTC


300440Z 3006/3106 VRB02KT 6000 NSC
BECMG 3006/3008 CAVOK
BECMG 3009/3011 SCT025
PROB30
TEMPO 3011/3014 -SHRA FEW018CB BKN028
BECMG 3014/3017 CAVOK
PROB40
TEMPO 3101/3105 3200 BR
BECMG 3104/3106 02022KT SCT009 BKN025



MET'MAP, your aeronautical weather chart ! - Copyright ORBIFLY December 2007 - Disclaimer

ORBIFLY MET'MAP TEAM :

Programming & Development : Alexandra Zaïnal
Concept & original design : Baudouin d'Aumeries
Assistance for programming : Marc-Olivier Méhu
Technical & hardware support : Manuel Goepfert

Contact : metmap@orbifly.com




SOURCES & CREDITS :

   NOAA